Time;durP1;ratioP1;P1;durP2;ratioP2;P2;SDS_P1;SDS_P2;PMS_P1;PMS_P2;Temp;Humidity;BMP_temperature;BMP_pressure;BME280_temperature;BME280_humidity;BME280_pressure;Samples;Min_cycle;Max_cycle;Signal;HPM_P1;HPM_P2
2022/02/28 00:02:06;;;;;;;15.40;8.30;;;;;;;-2.98;74.54;102428.67;88703;1287;88977;-68
2022/02/28 00:04:11;;;;;;;13.90;7.10;;;;;;;-2.99;74.87;102434.16;88607;1287;94564;-67
2022/02/28 00:06:17;;;;;;;15.20;7.20;;;;;;;-2.97;74.84;102432.89;88702;1287;80193;-67
2022/02/28 00:08:29;;;;;;;15.30;7.90;;;;;;;-2.97;74.66;102433.58;88652;1287;80731;-69
2022/02/28 00:10:39;;;;;;;17.60;8.30;;;;;;;-2.99;74.80;102434.14;88710;1286;100757;-67
2022/02/28 00:12:45;;;;;;;16.30;8.40;;;;;;;-3.00;74.67;102432.60;88709;1287;87195;-67
2022/02/28 00:14:51;;;;;;;15.10;7.60;;;;;;;-2.99;75.18;102430.46;88698;1287;96206;-77
2022/02/28 00:17:00;;;;;;;14.20;7.80;;;;;;;-3.00;74.96;102432.60;88682;1287;78632;-78
2022/02/28 00:19:09;;;;;;;17.20;7.90;;;;;;;-2.98;74.82;102432.55;88745;1286;82223;-79
2022/02/28 00:21:14;;;;;;;15.10;7.80;;;;;;;-3.00;75.00;102437.17;88633;1287;98535;-80
2022/02/28 00:23:23;;;;;;;15.80;8.20;;;;;;;-3.02;74.98;102432.67;88705;1286;89256;-79
2022/02/28 00:25:32;;;;;;;15.90;7.70;;;;;;;-3.03;75.01;102435.35;88601;1287;95302;-68
2022/02/28 00:27:38;;;;;;;16.30;7.90;;;;;;;-3.00;75.32;102438.06;88705;1287;79594;-68
2022/02/28 00:29:44;;;;;;;14.60;7.40;;;;;;;-2.96;75.18;102441.27;88708;1287;81139;-68
2022/02/28 00:31:53;;;;;;;15.10;7.00;;;;;;;-2.96;75.28;102440.92;88703;1285;99404;-68
2022/02/28 00:33:59;;;;;;;16.80;7.40;;;;;;;-2.97;74.98;102441.68;88715;1286;86964;-68
2022/02/28 00:36:08;;;;;;;13.30;7.10;;;;;;;-3.00;74.98;102441.59;88608;1287;94989;-78
2022/02/28 00:38:14;;;;;;;16.60;7.00;;;;;;;-3.03;75.12;102438.70;88489;1288;81777;-78
2022/02/28 00:40:20;;;;;;;13.50;7.40;;;;;;;-3.02;75.29;102437.05;88524;1287;80848;-78
2022/02/28 00:42:28;;;;;;;15.90;7.70;;;;;;;-3.03;75.22;102430.41;88490;1288;101381;-78
2022/02/28 00:44:37;;;;;;;16.50;8.30;;;;;;;-3.05;75.13;102426.45;88660;1287;88685;-67
2022/02/28 00:46:43;;;;;;;12.40;7.20;;;;;;;-3.06;75.14;102427.68;88612;1287;94268;-67
2022/02/28 00:48:49;;;;;;;15.40;7.40;;;;;;;-3.08;75.04;102433.75;88497;1287;79815;-67
2022/02/28 00:50:54;;;;;;;14.30;7.10;;;;;;;-3.14;75.06;102434.16;88668;1287;82298;-67
2022/02/28 00:53:03;;;;;;;16.40;8.10;;;;;;;-3.18;75.05;102429.52;88714;1287;99340;-67
2022/02/28 00:55:13;;;;;;;15.40;9.30;;;;;;;-3.21;75.09;102426.30;88709;1287;89399;-67
2022/02/28 00:57:22;;;;;;;16.40;8.20;;;;;;;-3.27;75.22;102421.73;88699;1287;95163;-67
2022/02/28 00:59:30;;;;;;;18.10;8.30;;;;;;;-3.33;75.35;102420.70;88631;1287;80093;-76
2022/02/28 01:01:37;;;;;;;18.90;7.80;;;;;;;-3.38;75.33;102422.48;88514;1289;82653;-76
2022/02/28 01:03:43;;;;;;;20.40;10.40;;;;;;;-3.43;75.15;102421.08;88488;1288;99786;-76
2022/02/28 01:05:49;;;;;;;22.60;11.70;;;;;;;-3.49;75.37;102421.63;88495;1287;89174;-67
2022/02/28 01:07:55;;;;;;;18.10;9.90;;;;;;;-3.54;75.47;102422.32;88643;1287;95155;-67
2022/02/28 01:10:01;;;;;;;24.40;11.00;;;;;;;-3.59;75.36;102419.67;88623;1287;79058;-67
2022/02/28 01:12:08;;;;;;;18.30;9.70;;;;;;;-3.63;75.52;102416.60;88458;1290;83099;-67
2022/02/28 01:14:14;;;;;;;16.80;9.20;;;;;;;-3.67;75.48;102419.05;88494;1288;99556;-69
2022/02/28 01:16:20;;;;;;;15.70;8.50;;;;;;;-3.73;75.53;102421.34;88516;1290;87273;-68
2022/02/28 01:18:25;;;;;;;13.80;8.30;;;;;;;-3.73;75.47;102420.98;88634;1287;94123;-67
2022/02/28 01:20:34;;;;;;;28.80;9.40;;;;;;;-3.71;75.73;102421.83;88614;1287;80001;-69
2022/02/28 01:22:43;;;;;;;24.00;9.00;;;;;;;-3.71;75.75;102416.90;88662;1287;81054;-67
2022/02/28 01:24:49;;;;;;;17.30;7.50;;;;;;;-3.72;76.07;102415.84;88730;1286;100133;-77
2022/02/28 01:26:55;;;;;;;15.50;7.40;;;;;;;-3.68;75.99;102409.55;88717;1287;89503;-78
2022/02/28 01:29:00;;;;;;;27.10;13.00;;;;;;;-3.67;76.26;102408.11;88638;1286;96686;-77
2022/02/28 01:31:06;;;;;;;29.30;14.90;;;;;;;-3.66;76.04;102402.81;88707;1287;81653;-67
2022/02/28 01:33:12;;;;;;;25.50;12.00;;;;;;;-3.68;76.20;102408.34;88702;1287;82614;-68
2022/02/28 01:35:18;;;;;;;22.30;11.00;;;;;;;-3.68;75.99;102408.66;88721;1286;98758;-68
2022/02/28 01:37:24;;;;;;;24.40;12.40;;;;;;;-3.68;76.20;102408.52;88647;1286;89432;-67
2022/02/28 01:39:30;;;;;;;27.20;13.50;;;;;;;-3.70;76.05;102417.02;88508;1288;94771;-76
2022/02/28 01:41:39;;;;;;;19.40;10.50;;;;;;;-3.74;76.01;102416.08;88629;1286;80810;-77
2022/02/28 01:43:47;;;;;;;34.70;15.50;;;;;;;-3.78;75.92;102415.72;88655;1287;81576;-76
2022/02/28 01:45:56;;;;;;;168.80;53.50;;;;;;;-3.83;76.20;102419.89;88704;1287;99715;-67
2022/02/28 01:48:06;;;;;;;136.10;44.00;;;;;;;-3.89;75.97;102419.91;88694;1286;87931;-67
2022/02/28 01:50:15;;;;;;;170.90;47.90;;;;;;;-3.93;75.82;102418.84;88614;1287;94167;-67
2022/02/28 01:52:26;;;;;;;182.00;57.70;;;;;;;-3.99;76.07;102420.95;88708;1287;78727;-68
2022/02/28 01:54:36;;;;;;;162.50;50.60;;;;;;;-4.07;76.02;102422.98;88721;1287;82402;-76
2022/02/28 01:56:44;;;;;;;80.20;27.90;;;;;;;-4.15;76.08;102421.63;88759;1285;100645;-77
2022/02/28 01:58:50;;;;;;;78.30;28.60;;;;;;;-4.24;75.96;102423.13;88720;1287;89016;-76
2022/02/28 02:00:55;;;;;;;89.00;30.40;;;;;;;-4.31;75.86;102425.45;88741;1284;94852;-67
2022/02/28 02:03:04;;;;;;;76.80;26.40;;;;;;;-4.39;76.18;102426.91;88743;1285;82398;-67
2022/02/28 02:05:13;;;;;;;72.10;24.20;;;;;;;-4.42;76.42;102429.12;88727;1286;81360;-77
2022/02/28 02:07:22;;;;;;;53.00;18.90;;;;;;;-4.46;76.11;102427.99;88715;1287;100062;-76
2022/02/28 02:09:34;;;;;;;53.40;18.00;;;;;;;-4.47;76.62;102429.77;88775;1285;87230;-67
2022/02/28 02:11:40;;;;;;;39.40;14.90;;;;;;;-4.44;76.71;102433.55;88719;1287;94126;-67
2022/02/28 02:13:50;;;;;;;47.00;15.00;;;;;;;-4.43;76.70;102434.41;88769;1285;79040;-67
2022/02/28 02:15:59;;;;;;;47.30;14.40;;;;;;;-4.40;76.68;102429.94;88728;1286;79658;-67
2022/02/28 02:18:05;;;;;;;33.60;10.60;;;;;;;-4.35;76.96;102431.54;88772;1285;99508;-67
2022/02/28 02:20:31;;;;;;;30.20;11.40;;;;;;;-4.30;77.26;102424.69;88726;1287;88939;-67
2022/02/28 02:22:55;;;;;;;16.40;7.40;;;;;;;-4.26;77.25;102422.99;88754;1285;93880;-68
2022/02/28 02:25:03;;;;;;;;;;;;;;;-4.16;77.64;102423.60;88775;1285;81067;-68
2022/02/28 02:27:09;;;;;;;15.90;7.50;;;;;;;-4.08;77.70;102425.64;88728;1287;82934;-67
2022/02/28 02:29:18;;;;;;;12.30;6.80;;;;;;;-4.04;77.30;102422.52;88779;1285;99399;-67
2022/02/28 02:31:27;;;;;;;12.40;7.00;;;;;;;-4.00;77.64;102423.62;88715;1287;87198;-70
2022/02/28 02:33:32;;;;;;;13.00;7.00;;;;;;;-3.94;77.82;102428.00;88742;1285;95821;-67
2022/02/28 02:35:38;;;;;;;13.20;7.10;;;;;;;-3.87;78.08;102431.85;88758;1285;80551;-68
2022/02/28 02:37:44;;;;;;;13.00;6.80;;;;;;;-3.86;78.11;102431.27;88719;1286;82145;-67
2022/02/28 02:39:52;;;;;;;12.30;6.70;;;;;;;-3.83;77.84;102433.27;88751;1285;100595;-68
2022/02/28 02:41:58;;;;;;;11.70;7.50;;;;;;;-3.78;77.96;102431.35;88745;1287;88072;-67
2022/02/28 02:44:07;;;;;;;11.40;7.00;;;;;;;-3.74;78.23;102426.46;88703;1287;93869;-68
2022/02/28 02:46:13;;;;;;;10.20;6.50;;;;;;;-3.69;77.95;102428.80;88749;1285;79499;-68
2022/02/28 02:48:24;;;;;;;14.20;7.50;;;;;;;-3.69;78.11;102425.45;88732;1287;83377;-67
2022/02/28 02:50:29;;;;;;;13.20;6.90;;;;;;;-3.72;77.92;102428.18;88725;1287;98413;-68
2022/02/28 02:52:35;;;;;;;12.50;6.50;;;;;;;-3.73;77.92;102431.38;88706;1286;87786;-68
2022/02/28 02:54:44;;;;;;;11.80;7.10;;;;;;;-3.74;77.99;102433.88;88610;1287;95034;-69
2022/02/28 02:56:52;;;;;;;12.40;7.00;;;;;;;-3.76;77.76;102430.40;88671;1287;78859;-68
2022/02/28 02:59:01;;;;;;;11.00;6.80;;;;;;;-3.77;77.90;102429.91;88767;1285;82974;-68
2022/02/28 03:01:06;;;;;;;13.20;6.70;;;;;;;-3.77;77.98;102427.45;88698;1287;100092;-68
2022/02/28 03:03:19;;;;;;;14.50;6.80;;;;;;;-3.78;78.06;102430.48;88751;1285;88924;-68
2022/02/28 03:05:25;;;;;;;14.20;6.80;;;;;;;-3.78;77.73;102427.50;88701;1287;94791;-78
2022/02/28 03:07:30;;;;;;;13.50;6.80;;;;;;;-3.81;77.88;102426.34;88724;1285;81137;-78
2022/02/28 03:09:39;;;;;;;15.30;6.90;;;;;;;-3.80;77.86;102430.73;88709;1287;82213;-77
2022/02/28 03:11:49;;;;;;;14.40;7.10;;;;;;;-3.81;77.64;102430.94;88714;1287;100577;-77
2022/02/28 03:13:57;;;;;;;11.40;6.70;;;;;;;-3.84;77.84;102431.38;88731;1285;88363;-77
2022/02/28 03:16:04;;;;;;;13.70;6.10;;;;;;;-3.85;77.97;102429.83;88742;1285;94956;-68
2022/02/28 03:18:09;;;;;;;13.90;7.00;;;;;;;-3.86;78.02;102435.30;88683;1287;80922;-68
2022/02/28 03:20:15;;;;;;;14.90;7.20;;;;;;;-3.87;77.82;102431.11;88755;1285;83917;-68
2022/02/28 03:22:20;;;;;;;13.10;7.10;;;;;;;-3.87;77.99;102435.36;88714;1287;100611;-71
2022/02/28 03:24:26;;;;;;;11.80;6.60;;;;;;;-3.87;78.02;102435.73;88635;1287;88808;-76
2022/02/28 03:26:32;;;;;;;13.60;6.50;;;;;;;-3.87;78.44;102431.51;88709;1287;95762;-78
2022/02/28 03:28:37;;;;;;;11.20;6.20;;;;;;;-3.89;78.36;102436.63;88595;1287;77002;-78
2022/02/28 03:30:43;;;;;;;15.30;6.70;;;;;;;-3.90;78.13;102434.23;88634;1287;82135;-77
2022/02/28 03:32:49;;;;;;;14.80;6.90;;;;;;;-3.95;78.10;102429.08;88706;1287;100501;-77
2022/02/28 03:34:57;;;;;;;13.10;6.90;;;;;;;-3.98;78.38;102431.48;88640;1287;87158;-78
2022/02/28 03:37:03;;;;;;;13.00;7.30;;;;;;;-4.05;78.53;102429.59;88443;1287;348324;-78
2022/02/28 03:39:09;;;;;;;12.50;6.60;;;;;;;-4.10;78.30;102427.63;88714;1287;82532;-78
2022/02/28 03:41:15;;;;;;;12.10;6.50;;;;;;;-4.12;78.22;102426.44;88469;1288;80216;-68
2022/02/28 03:43:20;;;;;;;15.90;7.70;;;;;;;-4.15;78.03;102426.73;88561;1287;100638;-68
2022/02/28 03:45:26;;;;;;;12.70;6.90;;;;;;;-4.17;78.40;102426.08;88668;1287;88754;-69
2022/02/28 03:47:31;;;;;;;12.00;6.80;;;;;;;-4.19;78.24;102430.17;88721;1285;92665;-68
2022/02/28 03:49:38;;;;;;;16.20;7.50;;;;;;;-4.20;78.29;102431.62;88655;1287;78537;-68
2022/02/28 03:51:47;;;;;;;17.10;8.00;;;;;;;-4.20;78.37;102429.69;88757;1285;82114;-68
2022/02/28 03:53:53;;;;;;;13.60;7.10;;;;;;;-4.21;78.42;102433.39;88661;1287;99471;-69
2022/02/28 03:55:59;;;;;;;13.50;7.00;;;;;;;-4.20;78.41;102435.65;88715;1285;87699;-68
2022/02/28 03:58:07;;;;;;;14.50;8.10;;;;;;;-4.21;78.51;102435.50;88770;1285;93785;-68
2022/02/28 04:00:15;;;;;;;11.20;6.70;;;;;;;-4.20;78.65;102438.63;88767;1286;78651;-78
2022/02/28 04:02:21;;;;;;;16.20;8.40;;;;;;;-4.18;78.75;102439.14;88775;1286;82036;-77
2022/02/28 04:04:26;;;;;;;13.40;7.80;;;;;;;-4.19;78.59;102439.50;88761;1285;101087;-68
2022/02/28 04:06:33;;;;;;;16.30;8.00;;;;;;;-4.19;78.51;102440.02;88779;1285;85773;-68
2022/02/28 04:08:39;;;;;;;17.10;8.10;;;;;;;-4.20;78.52;102440.05;88752;1284;92940;-67
2022/02/28 04:10:44;;;;;;;14.50;7.40;;;;;;;-4.20;78.66;102440.22;88763;1285;81655;-68
2022/02/28 04:12:53;;;;;;;14.30;7.40;;;;;;;-4.24;78.45;102446.50;88730;1285;82200;-68
2022/02/28 04:15:02;;;;;;;16.20;7.80;;;;;;;-4.23;79.10;102445.60;88774;1286;101961;-79
2022/02/28 04:17:13;;;;;;;17.30;8.70;;;;;;;-4.18;78.89;102441.60;88762;1286;87802;-78
2022/02/28 04:19:19;;;;;;;17.30;8.20;;;;;;;-4.18;78.93;102442.65;88706;1285;95625;-71
2022/02/28 04:21:25;;;;;;;16.50;8.20;;;;;;;-4.16;78.93;102447.52;88790;1286;80814;-79
2022/02/28 04:23:31;;;;;;;17.60;8.00;;;;;;;-4.16;78.97;102448.03;88796;1285;82797;-79
2022/02/28 04:25:39;;;;;;;18.00;9.10;;;;;;;-4.14;79.12;102447.46;88721;1285;99597;-79
2022/02/28 04:27:48;;;;;;;16.60;8.70;;;;;;;-4.13;78.86;102447.41;88817;1285;89629;-79
2022/02/28 04:29:54;;;;;;;34.90;16.00;;;;;;;-4.15;79.05;102450.98;88626;1286;95838;-68
2022/02/28 04:32:01;;;;;;;91.40;38.40;;;;;;;-4.15;78.91;102455.05;88757;1285;79348;-68
2022/02/28 04:34:07;;;;;;;40.90;24.30;;;;;;;-4.14;79.02;102453.95;88710;1285;83587;-68
2022/02/28 04:36:13;;;;;;;20.40;11.10;;;;;;;-4.13;78.94;102454.81;88778;1285;100682;-79
2022/02/28 04:38:22;;;;;;;20.30;11.30;;;;;;;-4.10;79.16;102451.38;88795;1286;88934;-79
2022/02/28 04:40:30;;;;;;;21.10;10.00;;;;;;;-4.11;78.85;102456.32;88784;1285;94282;-79
2022/02/28 04:42:36;;;;;;;22.90;10.90;;;;;;;-4.10;79.24;102454.02;88798;1285;79478;-76
2022/02/28 04:44:41;;;;;;;30.50;15.80;;;;;;;-4.08;79.05;102453.24;88807;1284;79890;-76
2022/02/28 04:46:47;;;;;;;26.10;14.10;;;;;;;-4.07;79.03;102454.11;88809;1285;100670;-76
2022/02/28 04:48:53;;;;;;;26.20;15.10;;;;;;;-4.05;78.94;102455.62;88730;1285;89619;-77
2022/02/28 04:51:01;;;;;;;45.40;18.10;;;;;;;-4.04;79.07;102458.06;88795;1286;94857;-77
2022/02/28 04:53:10;;;;;;;35.00;13.70;;;;;;;-4.05;78.83;102458.10;88715;1285;80905;-77
2022/02/28 04:55:22;;;;;;;36.00;14.50;;;;;;;-4.07;79.12;102462.02;88752;1285;83738;-68
2022/02/28 04:57:37;;;;;;;25.20;11.10;;;;;;;-4.10;79.45;102460.36;88695;1286;102116;-68
2022/02/28 04:59:43;;;;;;;26.20;11.00;;;;;;;-4.10;79.16;102457.36;88789;1285;88227;-75
2022/02/28 05:01:49;;;;;;;31.90;12.90;;;;;;;-4.11;79.00;102459.32;88739;1285;94367;-75
2022/02/28 05:03:55;;;;;;;32.10;12.20;;;;;;;-4.12;79.20;102457.97;88712;1286;81025;-76
2022/02/28 05:06:03;;;;;;;50.10;18.40;;;;;;;-4.15;79.08;102456.98;88809;1285;83669;-68
2022/02/28 05:08:12;;;;;;;50.30;18.00;;;;;;;-4.18;79.07;102462.69;88722;1285;98175;-65
2022/02/28 05:10:18;;;;;;;26.00;10.60;;;;;;;-4.16;78.98;102460.20;88809;1284;88570;-66
2022/02/28 05:12:23;;;;;;;30.90;11.90;;;;;;;-4.15;78.91;102462.79;88709;1285;96397;-65
2022/02/28 05:14:29;;;;;;;40.00;14.20;;;;;;;-4.14;79.07;102461.51;88637;1286;79295;-76
2022/02/28 05:16:34;;;;;;;41.40;14.20;;;;;;;-4.13;78.76;102460.95;88749;1285;82080;-75
2022/02/28 05:18:41;;;;;;;63.10;21.70;;;;;;;-4.14;78.88;102463.63;88721;1284;100707;-75
2022/02/28 05:20:46;;;;;;;33.10;14.30;;;;;;;-4.18;78.88;102466.93;88658;1286;89034;-76
2022/02/28 05:22:52;;;;;;;33.70;15.90;;;;;;;-4.15;78.98;102472.83;88722;1285;93762;-76
2022/02/28 05:25:01;;;;;;;31.70;14.50;;;;;;;-4.15;79.01;102477.40;88644;1287;76374;-67
2022/02/28 05:27:09;;;;;;;23.30;11.40;;;;;;;-4.18;79.07;102479.05;88638;1285;82019;-66
2022/02/28 05:29:18;;;;;;;34.10;16.30;;;;;;;-4.18;78.91;102479.95;88751;1285;98455;-66
2022/02/28 05:31:24;;;;;;;27.50;13.30;;;;;;;-4.20;78.81;102484.39;88751;1284;87181;-67
2022/02/28 05:33:29;;;;;;;27.70;13.90;;;;;;;-4.24;78.89;102485.05;88642;1287;94628;-66
2022/02/28 05:35:35;;;;;;;31.20;14.60;;;;;;;-4.26;79.36;102486.30;88783;1285;82253;-67
2022/02/28 05:37:44;;;;;;;19.50;9.10;;;;;;;-4.27;79.12;102486.71;88810;1284;83439;-67
2022/02/28 05:39:53;;;;;;;39.50;16.70;;;;;;;-4.28;79.00;102489.88;88653;1285;100342;-67
2022/02/28 05:41:58;;;;;;;18.70;9.30;;;;;;;-4.28;79.24;102492.34;88722;1285;88715;-67
2022/02/28 05:44:05;;;;;;;23.20;10.10;;;;;;;-4.26;79.13;102493.70;88745;1285;95473;-67
2022/02/28 05:46:11;;;;;;;24.90;11.90;;;;;;;-4.18;79.33;102492.44;88653;1287;78329;-67
2022/02/28 05:48:17;;;;;;;19.60;10.50;;;;;;;-4.13;79.17;102492.99;88711;1285;80528;-68
2022/02/28 05:50:23;;;;;;;18.30;9.00;;;;;;;-4.10;79.20;102497.30;88661;1287;100771;-67
2022/02/28 05:52:32;;;;;;;22.50;11.30;;;;;;;-4.06;79.15;102498.59;88649;1287;85570;-67
2022/02/28 05:54:37;;;;;;;18.80;10.00;;;;;;;-3.98;79.24;102497.47;88728;1285;93787;-67
2022/02/28 05:56:46;;;;;;;18.80;9.20;;;;;;;-3.90;79.13;102497.92;88744;1285;78635;-67
2022/02/28 05:58:52;;;;;;;15.20;8.30;;;;;;;-3.85;79.22;102498.98;88779;1284;82238;-67
2022/02/28 06:00:57;;;;;;;14.40;8.00;;;;;;;-3.79;79.32;102501.27;88779;1285;100668;-67
2022/02/28 06:03:06;;;;;;;16.60;7.90;;;;;;;-3.71;78.86;102501.39;88809;1285;88596;-68
2022/02/28 06:05:12;;;;;;;14.80;7.00;;;;;;;-3.64;79.09;102506.61;88762;1285;93444;-77
2022/02/28 06:07:21;;;;;;;16.90;8.50;;;;;;;-3.54;79.36;102506.30;88656;1286;78809;-77
2022/02/28 06:09:27;;;;;;;21.00;9.80;;;;;;;-3.39;79.22;102510.23;88736;1284;79822;-70
2022/02/28 06:11:33;;;;;;;18.00;9.10;;;;;;;-3.18;79.13;102514.83;88760;1285;99698;-74
2022/02/28 06:13:39;;;;;;;22.50;10.30;;;;;;;-3.04;79.14;102510.45;88752;1285;88912;-73
2022/02/28 06:15:46;;;;;;;20.60;9.60;;;;;;;-3.02;78.93;102515.52;88736;1285;94397;-75
2022/02/28 06:17:55;;;;;;;21.60;9.60;;;;;;;-3.03;78.75;102514.48;88766;1285;80129;-77
2022/02/28 06:20:01;;;;;;;20.30;10.20;;;;;;;-3.04;78.58;102514.52;88750;1285;82819;-68
2022/02/28 06:22:07;;;;;;;20.40;9.10;;;;;;;-3.03;78.52;102513.95;88732;1285;99601;-68
2022/02/28 06:24:15;;;;;;;23.40;11.00;;;;;;;-2.65;78.66;102515.98;88645;1287;88973;-67
2022/02/28 06:26:21;;;;;;;22.20;11.00;;;;;;;-1.61;79.14;102511.35;88749;1285;94394;-67
2022/02/28 06:28:32;;;;;;;25.40;10.70;;;;;;;-0.65;78.53;102508.08;88739;1285;79955;-67
2022/02/28 06:30:41;;;;;;;18.40;10.00;;;;;;;-0.00;77.62;102511.00;88644;1287;80360;-67
2022/02/28 06:32:49;;;;;;;20.10;11.60;;;;;;;0.57;77.01;102513.77;88785;1285;98344;-67
2022/02/28 06:34:55;;;;;;;17.70;11.40;;;;;;;0.62;75.72;102515.33;88755;1285;87403;-74
2022/02/28 06:37:01;;;;;;;19.00;10.90;;;;;;;0.52;75.44;102516.51;88631;1287;95467;-74
2022/02/28 06:39:11;;;;;;;23.60;11.50;;;;;;;0.72;75.47;102521.90;88759;1285;79806;-74
2022/02/28 06:41:19;;;;;;;20.30;10.10;;;;;;;1.00;74.63;102523.18;88679;1287;80102;-74
2022/02/28 06:43:28;;;;;;;20.50;9.90;;;;;;;1.16;74.36;102525.92;88642;1286;101406;-71
2022/02/28 06:45:33;;;;;;;20.90;10.10;;;;;;;1.53;73.51;102525.45;88767;1284;87411;-66
2022/02/28 06:47:39;;;;;;;17.90;8.90;;;;;;;1.76;72.22;102526.36;88652;1287;93515;-67
2022/02/28 06:49:44;;;;;;;15.90;8.70;;;;;;;1.41;71.38;102532.26;88641;1287;78839;-72
2022/02/28 06:51:53;;;;;;;18.50;8.40;;;;;;;1.22;71.73;102531.31;88767;1285;83453;-74
2022/02/28 06:53:59;;;;;;;17.40;8.80;;;;;;;1.25;72.07;102532.91;88704;1285;100759;-78
2022/02/28 06:56:08;;;;;;;17.90;8.00;;;;;;;1.99;71.67;102530.23;88845;1285;87808;-66
2022/02/28 06:58:21;;;;;;;15.80;7.90;;;;;;;2.08;70.89;102532.95;88809;1285;92970;-66
2022/02/28 07:00:27;;;;;;;11.80;7.10;;;;;;;1.92;69.79;102539.70;88859;1285;78452;-81
2022/02/28 07:02:33;;;;;;;19.10;8.40;;;;;;;1.90;70.28;102544.05;88774;1285;80674;-80
2022/02/28 07:04:39;;;;;;;14.60;8.10;;;;;;;1.74;69.44;102545.98;88842;1285;100199;-76
2022/02/28 07:06:46;;;;;;;15.50;7.30;;;;;;;1.83;70.26;102549.26;88852;1285;89750;-75
2022/02/28 07:08:56;;;;;;;13.70;7.00;;;;;;;2.54;70.06;102541.77;88831;1285;94912;-66
2022/02/28 07:11:06;;;;;;;13.70;7.30;;;;;;;3.42;69.34;102540.73;88781;1285;78984;-66
2022/02/28 07:13:16;;;;;;;12.30;7.00;;;;;;;4.33;68.58;102539.20;88853;1285;82636;-65
2022/02/28 07:15:23;;;;;;;11.30;7.00;;;;;;;4.89;68.27;102539.66;88799;1285;99095;-79
2022/02/28 07:17:32;;;;;;;12.30;7.00;;;;;;;5.01;65.99;102543.33;88871;1285;86850;-65
2022/02/28 07:19:39;;;;;;;12.90;7.30;;;;;;;4.94;65.70;102549.46;88787;1285;94810;-66
2022/02/28 07:21:45;;;;;;;12.90;6.90;;;;;;;4.86;66.07;102549.81;88852;1285;78573;-67
2022/02/28 07:23:50;;;;;;;12.50;7.00;;;;;;;5.42;66.96;102547.48;88797;1285;79935;-66
2022/02/28 07:25:57;;;;;;;13.70;6.60;;;;;;;6.36;66.55;102543.38;88842;1285;99739;-66
2022/02/28 07:28:03;;;;;;;12.30;7.10;;;;;;;7.14;65.09;102542.10;88843;1285;87397;-66
2022/02/28 07:30:11;;;;;;;11.80;6.90;;;;;;;7.85;63.30;102541.23;88857;1285;96098;-79
2022/02/28 07:32:17;;;;;;;14.00;6.10;;;;;;;8.10;61.52;102541.81;88849;1285;79920;-78
2022/02/28 07:34:26;;;;;;;13.30;6.80;;;;;;;8.28;61.30;102545.40;88786;1285;83279;-79
2022/02/28 07:36:31;;;;;;;10.70;6.20;;;;;;;8.07;59.39;102549.77;88653;1287;98375;-79
2022/02/28 07:38:39;;;;;;;10.60;6.30;;;;;;;8.34;60.23;102550.64;88786;1285;89298;-77
2022/02/28 07:40:44;;;;;;;11.90;6.70;;;;;;;8.99;59.33;102556.25;88769;1285;95243;-66
2022/02/28 07:42:53;;;;;;;12.40;7.50;;;;;;;9.60;57.96;102554.11;88785;1284;78831;-66
2022/02/28 07:44:59;;;;;;;10.10;5.90;;;;;;;9.99;55.57;102555.45;88662;1287;82185;-66
2022/02/28 07:47:09;;;;;;;11.40;7.10;;;;;;;10.35;56.25;102552.48;88660;1286;100822;-67
2022/02/28 07:49:14;;;;;;;10.90;6.90;;;;;;;11.26;56.14;102556.56;88851;1285;88047;-66
2022/02/28 07:51:20;;;;;;;8.90;6.50;;;;;;;11.85;54.33;102551.01;88847;1285;95794;-67
2022/02/28 07:53:26;;;;;;;14.20;6.90;;;;;;;12.54;54.00;102551.52;88856;1286;79105;-66
2022/02/28 07:55:32;;;;;;;19.10;14.10;;;;;;;13.09;52.98;102554.59;88786;1284;79723;-79
2022/02/28 07:57:40;;;;;;;12.80;8.20;;;;;;;13.14;51.09;102556.61;88674;1287;100667;-80
2022/02/28 07:59:46;;;;;;;12.00;7.40;;;;;;;13.24;50.66;102557.60;88676;1287;89174;-80
2022/02/28 08:01:54;;;;;;;10.20;7.80;;;;;;;13.70;51.69;102560.31;88600;1286;95085;-79
2022/02/28 08:04:03;;;;;;;12.90;8.10;;;;;;;14.14;50.07;102555.80;88802;1285;78130;-79
2022/02/28 08:06:09;;;;;;;11.70;7.10;;;;;;;14.59;48.66;102551.93;88874;1285;81181;-67
2022/02/28 08:08:17;;;;;;;12.00;7.40;;;;;;;14.59;49.33;102555.77;88860;1284;98701;-67
2022/02/28 08:10:23;;;;;;;13.70;8.10;;;;;;;14.90;46.95;102559.36;88868;1286;88298;-68
2022/02/28 08:12:29;;;;;;;13.80;8.00;;;;;;;15.06;46.65;102558.90;88622;1287;95898;-68
2022/02/28 08:14:36;;;;;;;14.50;8.90;;;;;;;15.21;46.49;102559.70;88856;1285;81204;-78
2022/02/28 08:16:42;;;;;;;14.00;8.80;;;;;;;15.53;46.44;102566.61;88911;1285;82912;-79
2022/02/28 08:18:48;;;;;;;10.90;7.80;;;;;;;15.93;44.28;102570.61;88885;1285;100512;-80
2022/02/28 08:20:54;;;;;;;14.40;9.30;;;;;;;15.95;42.43;102562.98;88876;1285;87031;-65
2022/02/28 08:22:59;;;;;;;11.00;7.40;;;;;;;15.89;44.36;102568.46;88781;1285;95057;-65
2022/02/28 08:25:10;;;;;;;14.90;8.80;;;;;;;15.39;42.62;102567.49;88598;1287;82441;-65
2022/02/28 08:27:16;;;;;;;10.60;6.90;;;;;;;15.49;44.15;102571.85;88849;1285;79871;-65
2022/02/28 08:29:25;;;;;;;10.30;7.50;;;;;;;15.35;41.24;102573.60;88874;1284;100618;-78
2022/02/28 08:31:34;;;;;;;26.20;15.30;;;;;;;15.20;42.53;102575.59;88892;1284;89076;-80
2022/02/28 08:33:40;;;;;;;15.10;8.80;;;;;;;15.48;42.84;102576.59;88801;1285;94483;-78
2022/02/28 08:35:45;;;;;;;34.00;19.90;;;;;;;15.78;41.85;102578.66;88640;1287;80473;-66
2022/02/28 08:37:54;;;;;;;16.70;11.50;;;;;;;15.91;41.15;102576.63;88675;1285;83090;-65
2022/02/28 08:40:03;;;;;;;13.70;9.90;;;;;;;15.92;42.12;102579.77;88862;1285;99067;-66
2022/02/28 08:42:11;;;;;;;12.10;8.70;;;;;;;16.21;40.26;102580.18;88791;1284;86907;-68
2022/02/28 08:44:23;;;;;;;23.80;14.20;;;;;;;15.72;39.38;102578.73;88842;1285;94323;-68
2022/02/28 08:46:31;;;;;;;13.20;7.80;;;;;;;15.89;39.78;102577.05;88787;1284;78353;-79
2022/02/28 08:48:37;;;;;;;13.80;8.60;;;;;;;16.00;39.31;102582.70;88848;1286;83590;-79
2022/02/28 08:50:42;;;;;;;15.30;10.60;;;;;;;15.36;38.35;102582.77;88861;1284;100178;-78
2022/02/28 08:52:48;;;;;;;16.70;10.10;;;;;;;15.39;38.52;102579.89;88879;1285;88214;-78
2022/02/28 08:54:57;;;;;;;24.60;15.70;;;;;;;15.80;39.75;102580.54;88794;1284;96037;-78
2022/02/28 08:57:05;;;;;;;16.70;10.90;;;;;;;16.01;38.60;102580.59;88779;1286;78404;-76
2022/02/28 08:59:11;;;;;;;13.40;9.10;;;;;;;15.74;38.08;102582.77;88770;1285;83362;-76
2022/02/28 09:01:16;;;;;;;15.70;10.60;;;;;;;15.82;38.54;102586.21;88860;1285;100941;-75
2022/02/28 09:03:22;;;;;;;12.50;9.20;;;;;;;15.81;37.44;102590.23;88800;1285;87145;-65
2022/02/28 09:05:28;;;;;;;10.70;7.30;;;;;;;16.01;37.59;102587.34;88856;1285;96985;-79
2022/02/28 09:07:33;;;;;;;8.70;6.40;;;;;;;15.92;37.32;102585.95;88851;1285;77216;-78
2022/02/28 09:09:39;;;;;;;8.40;6.60;;;;;;;15.45;36.54;102589.23;88868;1285;83302;-65
2022/02/28 09:11:44;;;;;;;9.20;6.40;;;;;;;15.26;37.29;102591.52;88856;1285;100189;-65
2022/02/28 09:13:51;;;;;;;10.60;6.00;;;;;;;14.94;37.47;102588.64;88856;1285;88762;-66
2022/02/28 09:15:59;;;;;;;20.40;11.90;;;;;;;15.00;37.65;102592.88;88811;1285;95255;-81
2022/02/28 09:18:07;;;;;;;17.90;10.10;;;;;;;15.26;37.96;102596.55;88775;1285;80400;-66
2022/02/28 09:20:14;;;;;;;14.50;10.00;;;;;;;15.24;35.37;102592.45;88873;1284;81149;-66
2022/02/28 09:22:20;;;;;;;10.90;5.90;;;;;;;15.16;35.89;102593.67;88873;1285;100401;-66
2022/02/28 09:24:30;;;;;;;13.30;7.80;;;;;;;14.57;37.21;102597.66;88847;1285;86992;-80
2022/02/28 09:26:36;;;;;;;11.90;6.60;;;;;;;14.72;36.69;102595.93;88827;1285;95409;-80
2022/02/28 09:28:42;;;;;;;12.20;6.30;;;;;;;14.83;37.05;102596.08;88855;1285;80063;-80
2022/02/28 09:30:50;;;;;;;8.10;4.70;;;;;;;14.72;36.00;102595.58;88821;1285;83149;-79
2022/02/28 09:32:59;;;;;;;15.50;7.90;;;;;;;14.43;35.36;102596.30;88617;1287;100234;-79
2022/02/28 09:35:06;;;;;;;14.60;8.10;;;;;;;14.22;34.72;102602.62;88828;1285;88239;-66
2022/02/28 09:37:15;;;;;;;14.10;9.30;;;;;;;13.58;34.81;102606.75;88791;1285;95764;-65
2022/02/28 09:39:23;;;;;;;10.70;7.50;;;;;;;13.38;35.71;102607.39;88820;1285;79202;-76
2022/02/28 09:41:30;;;;;;;8.90;5.30;;;;;;;13.40;35.79;102602.27;88827;1285;82479;-77
2022/02/28 09:43:36;;;;;;;16.00;8.80;;;;;;;13.44;36.15;102606.73;88644;1287;100300;-77